sensor_id;sensor_type;location;lat;lon;timestamp;temperature;humidity
10722;DHT22;5412;59.450;18.124;2023-07-20T00:01:16;15.60;99.90
10722;DHT22;5412;59.450;18.124;2023-07-20T00:03:41;15.60;99.90
10722;DHT22;5412;59.450;18.124;2023-07-20T00:06:07;15.70;99.90
10722;DHT22;5412;59.450;18.124;2023-07-20T00:08:33;15.60;99.90
10722;DHT22;5412;59.450;18.124;2023-07-20T00:10:59;15.60;99.90
10722;DHT22;5412;59.450;18.124;2023-07-20T00:13:25;15.40;99.90
10722;DHT22;5412;59.450;18.124;2023-07-20T00:15:51;15.50;99.90
10722;DHT22;5412;59.450;18.124;2023-07-20T00:18:17;15.50;99.90
10722;DHT22;5412;59.450;18.124;2023-07-20T00:20:43;15.50;99.90
10722;DHT22;5412;59.450;18.124;2023-07-20T00:23:08;15.40;99.90
10722;DHT22;5412;59.450;18.124;2023-07-20T00:25:34;15.40;99.90
10722;DHT22;5412;59.450;18.124;2023-07-20T00:28:01;15.30;99.90
10722;DHT22;5412;59.450;18.124;2023-07-20T00:30:27;15.20;99.90
10722;DHT22;5412;59.450;18.124;2023-07-20T00:32:52;15.20;99.90
10722;DHT22;5412;59.450;18.124;2023-07-20T00:35:18;15.30;99.90
10722;DHT22;5412;59.450;18.124;2023-07-20T00:37:44;15.30;99.90
10722;DHT22;5412;59.450;18.124;2023-07-20T00:40:10;15.30;99.90
10722;DHT22;5412;59.450;18.124;2023-07-20T00:42:36;15.30;99.90
10722;DHT22;5412;59.450;18.124;2023-07-20T00:45:02;15.30;99.90
10722;DHT22;5412;59.450;18.124;2023-07-20T00:47:27;15.30;99.90
10722;DHT22;5412;59.450;18.124;2023-07-20T00:49:54;15.20;99.90
10722;DHT22;5412;59.450;18.124;2023-07-20T00:52:23;15.20;99.90
10722;DHT22;5412;59.450;18.124;2023-07-20T00:54:51;15.10;99.90
10722;DHT22;5412;59.450;18.124;2023-07-20T00:57:17;14.90;99.90
10722;DHT22;5412;59.450;18.124;2023-07-20T00:59:44;15.00;99.90
10722;DHT22;5412;59.450;18.124;2023-07-20T01:02:10;15.10;99.90
10722;DHT22;5412;59.450;18.124;2023-07-20T01:04:36;15.10;99.90
10722;DHT22;5412;59.450;18.124;2023-07-20T01:07:32;15.20;99.90
10722;DHT22;5412;59.450;18.124;2023-07-20T01:10:06;15.10;99.90
10722;DHT22;5412;59.450;18.124;2023-07-20T01:13:01;15.00;99.90
10722;DHT22;5412;59.450;18.124;2023-07-20T01:15:27;14.90;99.90
10722;DHT22;5412;59.450;18.124;2023-07-20T01:17:53;15.00;99.90
10722;DHT22;5412;59.450;18.124;2023-07-20T01:20:20;15.10;99.90
10722;DHT22;5412;59.450;18.124;2023-07-20T01:33:13;15.00;99.90
10722;DHT22;5412;59.450;18.124;2023-07-20T01:35:41;15.10;99.90
10722;DHT22;5412;59.450;18.124;2023-07-20T01:38:10;15.00;99.90
10722;DHT22;5412;59.450;18.124;2023-07-20T01:40:36;15.10;99.90
10722;DHT22;5412;59.450;18.124;2023-07-20T01:43:03;15.10;99.90
10722;DHT22;5412;59.450;18.124;2023-07-20T01:45:28;15.00;99.90
10722;DHT22;5412;59.450;18.124;2023-07-20T01:47:55;15.10;99.90
10722;DHT22;5412;59.450;18.124;2023-07-20T01:50:20;15.10;99.90
10722;DHT22;5412;59.450;18.124;2023-07-20T01:52:46;14.90;99.90
10722;DHT22;5412;59.450;18.124;2023-07-20T01:55:12;14.90;99.90
10722;DHT22;5412;59.450;18.124;2023-07-20T01:57:37;14.80;99.90
10722;DHT22;5412;59.450;18.124;2023-07-20T02:00:04;14.80;99.90
10722;DHT22;5412;59.450;18.124;2023-07-20T02:02:29;14.90;99.90
10722;DHT22;5412;59.450;18.124;2023-07-20T02:04:55;14.90;99.90
10722;DHT22;5412;59.450;18.124;2023-07-20T02:07:21;14.90;99.90
10722;DHT22;5412;59.450;18.124;2023-07-20T02:09:47;14.80;99.90
10722;DHT22;5412;59.450;18.124;2023-07-20T02:12:12;14.90;99.90
10722;DHT22;5412;59.450;18.124;2023-07-20T02:14:38;14.90;99.90
10722;DHT22;5412;59.450;18.124;2023-07-20T02:17:04;15.00;99.90
10722;DHT22;5412;59.450;18.124;2023-07-20T02:19:30;15.00;99.90
10722;DHT22;5412;59.450;18.124;2023-07-20T02:21:56;15.00;99.90
10722;DHT22;5412;59.450;18.124;2023-07-20T02:24:22;14.90;99.90
10722;DHT22;5412;59.450;18.124;2023-07-20T02:26:48;14.80;99.90
10722;DHT22;5412;59.450;18.124;2023-07-20T02:29:14;14.70;99.90
10722;DHT22;5412;59.450;18.124;2023-07-20T02:31:39;14.60;99.90
10722;DHT22;5412;59.450;18.124;2023-07-20T02:34:06;14.60;99.90
10722;DHT22;5412;59.450;18.124;2023-07-20T02:36:32;14.60;99.90
10722;DHT22;5412;59.450;18.124;2023-07-20T02:39:00;14.60;99.90
10722;DHT22;5412;59.450;18.124;2023-07-20T02:41:30;14.70;99.90
10722;DHT22;5412;59.450;18.124;2023-07-20T02:43:56;14.70;99.90
10722;DHT22;5412;59.450;18.124;2023-07-20T02:46:22;14.60;99.90
10722;DHT22;5412;59.450;18.124;2023-07-20T02:48:48;14.70;99.90
10722;DHT22;5412;59.450;18.124;2023-07-20T02:51:13;14.60;99.90
10722;DHT22;5412;59.450;18.124;2023-07-20T02:53:39;14.60;99.90
10722;DHT22;5412;59.450;18.124;2023-07-20T02:56:05;14.40;99.90
10722;DHT22;5412;59.450;18.124;2023-07-20T02:58:30;14.50;99.90
10722;DHT22;5412;59.450;18.124;2023-07-20T03:00:56;14.60;99.90
10722;DHT22;5412;59.450;18.124;2023-07-20T03:03:22;14.50;99.90
10722;DHT22;5412;59.450;18.124;2023-07-20T03:05:47;14.60;99.90
10722;DHT22;5412;59.450;18.124;2023-07-20T03:08:19;14.60;99.90
10722;DHT22;5412;59.450;18.124;2023-07-20T03:10:45;14.60;99.90
10722;DHT22;5412;59.450;18.124;2023-07-20T03:13:11;14.60;99.90
10722;DHT22;5412;59.450;18.124;2023-07-20T03:15:38;14.60;99.90
10722;DHT22;5412;59.450;18.124;2023-07-20T03:18:04;14.50;99.90
10722;DHT22;5412;59.450;18.124;2023-07-20T03:20:30;14.40;99.90
10722;DHT22;5412;59.450;18.124;2023-07-20T03:22:56;14.40;99.90
10722;DHT22;5412;59.450;18.124;2023-07-20T03:25:22;14.50;99.90
10722;DHT22;5412;59.450;18.124;2023-07-20T03:27:48;14.60;99.90
10722;DHT22;5412;59.450;18.124;2023-07-20T03:30:14;14.50;99.90
10722;DHT22;5412;59.450;18.124;2023-07-20T03:32:40;14.50;99.90
10722;DHT22;5412;59.450;18.124;2023-07-20T03:35:06;14.50;99.90
10722;DHT22;5412;59.450;18.124;2023-07-20T03:37:32;14.40;99.90
10722;DHT22;5412;59.450;18.124;2023-07-20T03:40:00;14.40;99.90
10722;DHT22;5412;59.450;18.124;2023-07-20T03:42:26;14.50;99.90
10722;DHT22;5412;59.450;18.124;2023-07-20T03:44:51;14.40;99.90
10722;DHT22;5412;59.450;18.124;2023-07-20T03:47:17;14.40;99.90
10722;DHT22;5412;59.450;18.124;2023-07-20T03:49:43;14.50;99.90
10722;DHT22;5412;59.450;18.124;2023-07-20T03:52:09;14.60;99.90
10722;DHT22;5412;59.450;18.124;2023-07-20T03:54:34;14.60;99.90
10722;DHT22;5412;59.450;18.124;2023-07-20T03:57:00;14.60;99.90
10722;DHT22;5412;59.450;18.124;2023-07-20T03:59:26;14.60;99.90
10722;DHT22;5412;59.450;18.124;2023-07-20T04:01:52;14.60;99.90
10722;DHT22;5412;59.450;18.124;2023-07-20T04:04:18;14.50;99.90
10722;DHT22;5412;59.450;18.124;2023-07-20T04:06:44;14.60;99.90
10722;DHT22;5412;59.450;18.124;2023-07-20T04:09:12;14.60;99.90
10722;DHT22;5412;59.450;18.124;2023-07-20T04:11:38;14.60;99.90
10722;DHT22;5412;59.450;18.124;2023-07-20T04:14:04;14.60;99.90
10722;DHT22;5412;59.450;18.124;2023-07-20T04:16:30;14.70;99.90
10722;DHT22;5412;59.450;18.124;2023-07-20T04:18:56;14.70;99.90
10722;DHT22;5412;59.450;18.124;2023-07-20T04:21:23;14.90;99.90
10722;DHT22;5412;59.450;18.124;2023-07-20T04:23:48;14.90;99.90
10722;DHT22;5412;59.450;18.124;2023-07-20T04:26:14;15.00;99.90
10722;DHT22;5412;59.450;18.124;2023-07-20T04:28:41;15.20;99.90
10722;DHT22;5412;59.450;18.124;2023-07-20T04:31:12;15.20;99.90
10722;DHT22;5412;59.450;18.124;2023-07-20T04:33:38;15.00;99.90
10722;DHT22;5412;59.450;18.124;2023-07-20T04:36:04;14.90;99.90
10722;DHT22;5412;59.450;18.124;2023-07-20T04:38:30;15.00;99.90
10722;DHT22;5412;59.450;18.124;2023-07-20T04:40:56;14.90;99.90
10722;DHT22;5412;59.450;18.124;2023-07-20T04:43:22;15.10;99.90
10722;DHT22;5412;59.450;18.124;2023-07-20T04:45:47;15.20;99.90
10722;DHT22;5412;59.450;18.124;2023-07-20T04:48:16;15.30;99.90
10722;DHT22;5412;59.450;18.124;2023-07-20T04:50:45;15.40;99.90
10722;DHT22;5412;59.450;18.124;2023-07-20T04:53:14;15.40;99.90
10722;DHT22;5412;59.450;18.124;2023-07-20T04:55:40;15.40;99.90
10722;DHT22;5412;59.450;18.124;2023-07-20T04:58:06;15.40;99.90
10722;DHT22;5412;59.450;18.124;2023-07-20T05:00:33;15.40;99.90
10722;DHT22;5412;59.450;18.124;2023-07-20T05:02:59;15.50;99.90
10722;DHT22;5412;59.450;18.124;2023-07-20T05:05:25;15.60;99.90
10722;DHT22;5412;59.450;18.124;2023-07-20T05:07:51;15.50;99.90
10722;DHT22;5412;59.450;18.124;2023-07-20T05:10:17;15.60;99.90
10722;DHT22;5412;59.450;18.124;2023-07-20T05:12:43;15.70;99.90
10722;DHT22;5412;59.450;18.124;2023-07-20T05:15:09;15.80;99.90
10722;DHT22;5412;59.450;18.124;2023-07-20T05:17:35;15.70;99.90
10722;DHT22;5412;59.450;18.124;2023-07-20T05:20:00;15.70;99.90
10722;DHT22;5412;59.450;18.124;2023-07-20T05:22:26;15.60;99.90
10722;DHT22;5412;59.450;18.124;2023-07-20T05:24:52;15.70;99.90
10722;DHT22;5412;59.450;18.124;2023-07-20T05:27:18;15.70;99.90
10722;DHT22;5412;59.450;18.124;2023-07-20T05:29:45;15.80;99.90
10722;DHT22;5412;59.450;18.124;2023-07-20T05:32:10;15.90;99.90
10722;DHT22;5412;59.450;18.124;2023-07-20T05:34:36;16.10;99.90
10722;DHT22;5412;59.450;18.124;2023-07-20T05:37:02;16.10;99.90
10722;DHT22;5412;59.450;18.124;2023-07-20T05:39:27;16.30;99.90
10722;DHT22;5412;59.450;18.124;2023-07-20T05:41:53;16.20;99.90
10722;DHT22;5412;59.450;18.124;2023-07-20T05:44:19;16.20;99.90
10722;DHT22;5412;59.450;18.124;2023-07-20T05:46:44;16.20;99.90
10722;DHT22;5412;59.450;18.124;2023-07-20T05:49:10;16.20;99.90
10722;DHT22;5412;59.450;18.124;2023-07-20T05:51:36;16.40;99.90
10722;DHT22;5412;59.450;18.124;2023-07-20T05:54:02;16.60;99.90
10722;DHT22;5412;59.450;18.124;2023-07-20T05:56:27;16.60;99.90
10722;DHT22;5412;59.450;18.124;2023-07-20T05:58:53;16.60;99.90
10722;DHT22;5412;59.450;18.124;2023-07-20T06:01:19;16.80;99.90
10722;DHT22;5412;59.450;18.124;2023-07-20T06:03:45;16.60;99.90
10722;DHT22;5412;59.450;18.124;2023-07-20T06:06:10;16.70;99.90
10722;DHT22;5412;59.450;18.124;2023-07-20T06:08:38;16.80;99.90
10722;DHT22;5412;59.450;18.124;2023-07-20T06:11:04;16.90;99.90
10722;DHT22;5412;59.450;18.124;2023-07-20T06:13:30;17.10;99.90
10722;DHT22;5412;59.450;18.124;2023-07-20T06:15:56;17.10;99.90
10722;DHT22;5412;59.450;18.124;2023-07-20T06:18:25;17.30;99.90
10722;DHT22;5412;59.450;18.124;2023-07-20T06:20:51;17.10;99.90
10722;DHT22;5412;59.450;18.124;2023-07-20T06:23:20;17.20;99.90
10722;DHT22;5412;59.450;18.124;2023-07-20T06:25:46;17.20;99.90
10722;DHT22;5412;59.450;18.124;2023-07-20T06:28:12;17.20;99.90
10722;DHT22;5412;59.450;18.124;2023-07-20T06:30:38;17.30;99.90
10722;DHT22;5412;59.450;18.124;2023-07-20T06:33:04;17.50;99.90
10722;DHT22;5412;59.450;18.124;2023-07-20T06:35:29;17.40;99.90
10722;DHT22;5412;59.450;18.124;2023-07-20T06:37:55;17.30;99.90
10722;DHT22;5412;59.450;18.124;2023-07-20T06:40:21;17.30;99.90
10722;DHT22;5412;59.450;18.124;2023-07-20T06:42:47;17.30;99.90
10722;DHT22;5412;59.450;18.124;2023-07-20T06:45:12;17.30;99.90
10722;DHT22;5412;59.450;18.124;2023-07-20T06:47:39;17.40;99.90
10722;DHT22;5412;59.450;18.124;2023-07-20T06:50:06;17.80;99.90
10722;DHT22;5412;59.450;18.124;2023-07-20T06:52:32;18.10;99.90
10722;DHT22;5412;59.450;18.124;2023-07-20T06:54:58;18.10;99.90
10722;DHT22;5412;59.450;18.124;2023-07-20T06:57:24;18.00;99.90
10722;DHT22;5412;59.450;18.124;2023-07-20T06:59:53;17.90;99.90
10722;DHT22;5412;59.450;18.124;2023-07-20T07:02:19;17.90;99.90
10722;DHT22;5412;59.450;18.124;2023-07-20T07:04:45;17.90;99.90
10722;DHT22;5412;59.450;18.124;2023-07-20T07:07:14;18.00;99.90
10722;DHT22;5412;59.450;18.124;2023-07-20T07:09:40;18.20;99.90
10722;DHT22;5412;59.450;18.124;2023-07-20T07:12:06;18.30;99.90
10722;DHT22;5412;59.450;18.124;2023-07-20T07:14:32;18.30;99.90
10722;DHT22;5412;59.450;18.124;2023-07-20T07:16:58;18.20;99.90
10722;DHT22;5412;59.450;18.124;2023-07-20T07:19:24;18.20;99.90
10722;DHT22;5412;59.450;18.124;2023-07-20T07:21:49;18.40;99.90
10722;DHT22;5412;59.450;18.124;2023-07-20T07:24:16;18.40;99.90
10722;DHT22;5412;59.450;18.124;2023-07-20T07:26:42;17.90;99.90
10722;DHT22;5412;59.450;18.124;2023-07-20T07:29:08;18.10;99.90
10722;DHT22;5412;59.450;18.124;2023-07-20T07:31:34;18.30;99.90
10722;DHT22;5412;59.450;18.124;2023-07-20T07:34:02;17.90;99.90
10722;DHT22;5412;59.450;18.124;2023-07-20T07:36:27;18.00;99.90
10722;DHT22;5412;59.450;18.124;2023-07-20T07:38:53;18.10;99.90
10722;DHT22;5412;59.450;18.124;2023-07-20T07:41:19;18.20;99.90
10722;DHT22;5412;59.450;18.124;2023-07-20T07:43:46;18.30;99.90
10722;DHT22;5412;59.450;18.124;2023-07-20T07:46:11;18.10;99.90
10722;DHT22;5412;59.450;18.124;2023-07-20T07:48:37;18.40;99.90
10722;DHT22;5412;59.450;18.124;2023-07-20T07:51:03;18.70;99.90
10722;DHT22;5412;59.450;18.124;2023-07-20T07:53:29;18.80;99.90
10722;DHT22;5412;59.450;18.124;2023-07-20T07:55:55;19.10;99.90
10722;DHT22;5412;59.450;18.124;2023-07-20T07:58:21;19.10;99.90
10722;DHT22;5412;59.450;18.124;2023-07-20T08:00:46;19.00;99.90
10722;DHT22;5412;59.450;18.124;2023-07-20T08:03:13;18.70;99.90
10722;DHT22;5412;59.450;18.124;2023-07-20T08:05:39;18.50;99.90
10722;DHT22;5412;59.450;18.124;2023-07-20T08:08:05;18.60;99.90
10722;DHT22;5412;59.450;18.124;2023-07-20T08:10:31;18.60;99.90
10722;DHT22;5412;59.450;18.124;2023-07-20T08:12:57;18.70;99.90
10722;DHT22;5412;59.450;18.124;2023-07-20T08:15:23;18.60;99.90
10722;DHT22;5412;59.450;18.124;2023-07-20T08:17:48;18.80;99.90
10722;DHT22;5412;59.450;18.124;2023-07-20T08:20:17;18.80;99.90
10722;DHT22;5412;59.450;18.124;2023-07-20T08:22:43;18.80;99.90
10722;DHT22;5412;59.450;18.124;2023-07-20T08:25:09;18.80;99.90
10722;DHT22;5412;59.450;18.124;2023-07-20T08:27:36;18.80;99.90
10722;DHT22;5412;59.450;18.124;2023-07-20T08:30:02;18.70;99.90
10722;DHT22;5412;59.450;18.124;2023-07-20T08:32:29;18.80;99.90
10722;DHT22;5412;59.450;18.124;2023-07-20T08:34:55;18.70;99.90
10722;DHT22;5412;59.450;18.124;2023-07-20T08:37:21;18.60;99.90
10722;DHT22;5412;59.450;18.124;2023-07-20T08:39:46;18.80;99.90
10722;DHT22;5412;59.450;18.124;2023-07-20T08:42:14;19.10;99.90
10722;DHT22;5412;59.450;18.124;2023-07-20T08:44:42;19.30;99.90
10722;DHT22;5412;59.450;18.124;2023-07-20T08:47:09;19.40;99.90
10722;DHT22;5412;59.450;18.124;2023-07-20T08:49:36;19.80;99.90
10722;DHT22;5412;59.450;18.124;2023-07-20T08:52:02;20.10;99.90
10722;DHT22;5412;59.450;18.124;2023-07-20T08:54:31;20.10;99.90
10722;DHT22;5412;59.450;18.124;2023-07-20T08:57:03;20.20;99.90
10722;DHT22;5412;59.450;18.124;2023-07-20T08:59:30;20.20;99.90
10722;DHT22;5412;59.450;18.124;2023-07-20T09:01:59;20.30;99.90
10722;DHT22;5412;59.450;18.124;2023-07-20T09:04:25;20.40;99.90
10722;DHT22;5412;59.450;18.124;2023-07-20T09:06:51;20.60;99.90
10722;DHT22;5412;59.450;18.124;2023-07-20T09:09:17;20.50;99.90
10722;DHT22;5412;59.450;18.124;2023-07-20T09:11:47;20.00;99.90
10722;DHT22;5412;59.450;18.124;2023-07-20T09:14:13;19.70;99.90
10722;DHT22;5412;59.450;18.124;2023-07-20T09:16:50;19.90;99.90
10722;DHT22;5412;59.450;18.124;2023-07-20T09:19:17;19.80;99.90
10722;DHT22;5412;59.450;18.124;2023-07-20T09:21:50;20.00;99.90
10722;DHT22;5412;59.450;18.124;2023-07-20T09:24:20;19.90;99.90
10722;DHT22;5412;59.450;18.124;2023-07-20T09:26:47;19.90;99.90
10722;DHT22;5412;59.450;18.124;2023-07-20T09:29:19;20.00;99.90
10722;DHT22;5412;59.450;18.124;2023-07-20T09:32:02;20.20;99.90
10722;DHT22;5412;59.450;18.124;2023-07-20T09:34:32;20.20;99.90
10722;DHT22;5412;59.450;18.124;2023-07-20T09:36:59;20.20;99.90
10722;DHT22;5412;59.450;18.124;2023-07-20T09:39:24;20.50;99.90
10722;DHT22;5412;59.450;18.124;2023-07-20T09:41:51;20.30;99.90
10722;DHT22;5412;59.450;18.124;2023-07-20T09:44:17;20.00;99.90
10722;DHT22;5412;59.450;18.124;2023-07-20T09:46:48;19.80;99.90
10722;DHT22;5412;59.450;18.124;2023-07-20T09:49:14;19.60;99.90
10722;DHT22;5412;59.450;18.124;2023-07-20T09:51:41;19.60;99.90
10722;DHT22;5412;59.450;18.124;2023-07-20T09:54:07;19.50;99.90
10722;DHT22;5412;59.450;18.124;2023-07-20T09:56:35;19.50;99.90
10722;DHT22;5412;59.450;18.124;2023-07-20T09:59:01;19.70;99.90
10722;DHT22;5412;59.450;18.124;2023-07-20T10:01:26;19.70;99.90
10722;DHT22;5412;59.450;18.124;2023-07-20T10:03:54;19.60;99.90
10722;DHT22;5412;59.450;18.124;2023-07-20T10:06:24;19.70;99.90
10722;DHT22;5412;59.450;18.124;2023-07-20T10:08:53;20.00;99.90
10722;DHT22;5412;59.450;18.124;2023-07-20T10:11:22;20.00;99.90
10722;DHT22;5412;59.450;18.124;2023-07-20T10:13:51;20.00;99.90
10722;DHT22;5412;59.450;18.124;2023-07-20T10:16:28;20.10;99.90
10722;DHT22;5412;59.450;18.124;2023-07-20T10:19:13;20.30;99.90
10722;DHT22;5412;59.450;18.124;2023-07-20T10:21:47;20.40;99.90
10722;DHT22;5412;59.450;18.124;2023-07-20T10:24:13;20.10;99.90
10722;DHT22;5412;59.450;18.124;2023-07-20T10:26:40;19.70;99.90
10722;DHT22;5412;59.450;18.124;2023-07-20T10:29:06;19.50;99.90
10722;DHT22;5412;59.450;18.124;2023-07-20T10:31:32;19.10;99.90
10722;DHT22;5412;59.450;18.124;2023-07-20T10:33:59;19.20;99.90
10722;DHT22;5412;59.450;18.124;2023-07-20T10:36:28;19.30;99.90
10722;DHT22;5412;59.450;18.124;2023-07-20T10:38:57;19.50;99.90
10722;DHT22;5412;59.450;18.124;2023-07-20T10:41:39;19.20;99.90
10722;DHT22;5412;59.450;18.124;2023-07-20T10:44:07;19.20;99.90
10722;DHT22;5412;59.450;18.124;2023-07-20T10:46:43;19.40;99.90
10722;DHT22;5412;59.450;18.124;2023-07-20T10:49:10;19.50;99.90
10722;DHT22;5412;59.450;18.124;2023-07-20T10:51:40;19.70;99.90
10722;DHT22;5412;59.450;18.124;2023-07-20T10:56:42;20.20;99.90
10722;DHT22;5412;59.450;18.124;2023-07-20T10:59:36;20.50;99.90
10722;DHT22;5412;59.450;18.124;2023-07-20T11:02:07;20.60;99.90
10722;DHT22;5412;59.450;18.124;2023-07-20T11:04:44;20.40;99.90
10722;DHT22;5412;59.450;18.124;2023-07-20T11:07:14;20.40;99.90
10722;DHT22;5412;59.450;18.124;2023-07-20T11:09:40;20.50;99.90
10722;DHT22;5412;59.450;18.124;2023-07-20T11:12:14;20.60;99.90
10722;DHT22;5412;59.450;18.124;2023-07-20T11:14:53;20.80;99.90
10722;DHT22;5412;59.450;18.124;2023-07-20T11:17:19;20.80;99.90
10722;DHT22;5412;59.450;18.124;2023-07-20T11:19:48;21.00;99.90
10722;DHT22;5412;59.450;18.124;2023-07-20T11:22:17;21.10;99.90
10722;DHT22;5412;59.450;18.124;2023-07-20T11:24:43;21.10;99.90
10722;DHT22;5412;59.450;18.124;2023-07-20T11:27:09;21.20;99.90
10722;DHT22;5412;59.450;18.124;2023-07-20T11:29:35;21.30;99.90
10722;DHT22;5412;59.450;18.124;2023-07-20T11:32:03;21.30;99.90
10722;DHT22;5412;59.450;18.124;2023-07-20T11:34:30;21.20;99.90
10722;DHT22;5412;59.450;18.124;2023-07-20T11:36:56;21.20;99.90
10722;DHT22;5412;59.450;18.124;2023-07-20T11:39:23;21.20;99.90
10722;DHT22;5412;59.450;18.124;2023-07-20T11:41:55;20.90;99.90
10722;DHT22;5412;59.450;18.124;2023-07-20T11:44:23;21.00;99.90
10722;DHT22;5412;59.450;18.124;2023-07-20T11:47:00;20.90;99.90
10722;DHT22;5412;59.450;18.124;2023-07-20T11:49:40;20.90;99.90
10722;DHT22;5412;59.450;18.124;2023-07-20T11:52:10;20.60;99.90
10722;DHT22;5412;59.450;18.124;2023-07-20T11:54:38;20.60;99.90
10722;DHT22;5412;59.450;18.124;2023-07-20T11:57:05;20.40;99.90
10722;DHT22;5412;59.450;18.124;2023-07-20T11:59:31;20.40;99.90
10722;DHT22;5412;59.450;18.124;2023-07-20T12:02:03;20.10;99.90
10722;DHT22;5412;59.450;18.124;2023-07-20T12:04:32;20.20;99.90
10722;DHT22;5412;59.450;18.124;2023-07-20T12:06:59;20.40;99.90
10722;DHT22;5412;59.450;18.124;2023-07-20T12:09:25;20.60;99.90
10722;DHT22;5412;59.450;18.124;2023-07-20T12:11:50;20.70;99.90
10722;DHT22;5412;59.450;18.124;2023-07-20T12:14:16;20.70;99.90
10722;DHT22;5412;59.450;18.124;2023-07-20T12:16:43;20.80;99.90
10722;DHT22;5412;59.450;18.124;2023-07-20T12:19:13;21.00;99.90
10722;DHT22;5412;59.450;18.124;2023-07-20T12:21:40;20.90;99.90
10722;DHT22;5412;59.450;18.124;2023-07-20T12:24:08;21.00;99.90
10722;DHT22;5412;59.450;18.124;2023-07-20T12:26:37;21.50;99.90
10722;DHT22;5412;59.450;18.124;2023-07-20T12:29:03;22.10;99.90
10722;DHT22;5412;59.450;18.124;2023-07-20T12:31:30;22.70;99.90
10722;DHT22;5412;59.450;18.124;2023-07-20T12:33:57;22.40;99.90
10722;DHT22;5412;59.450;18.124;2023-07-20T12:36:24;21.90;99.90
10722;DHT22;5412;59.450;18.124;2023-07-20T12:38:50;21.60;99.90
10722;DHT22;5412;59.450;18.124;2023-07-20T12:41:16;21.40;99.90
10722;DHT22;5412;59.450;18.124;2023-07-20T12:43:43;21.30;99.90
10722;DHT22;5412;59.450;18.124;2023-07-20T12:46:11;21.40;99.90
10722;DHT22;5412;59.450;18.124;2023-07-20T12:48:40;21.50;99.90
10722;DHT22;5412;59.450;18.124;2023-07-20T12:51:08;21.90;99.90
10722;DHT22;5412;59.450;18.124;2023-07-20T12:53:35;21.70;99.90
10722;DHT22;5412;59.450;18.124;2023-07-20T12:56:01;22.00;99.90
10722;DHT22;5412;59.450;18.124;2023-07-20T12:58:27;22.00;99.90
10722;DHT22;5412;59.450;18.124;2023-07-20T13:00:53;22.20;99.90
10722;DHT22;5412;59.450;18.124;2023-07-20T13:03:19;22.60;99.90
10722;DHT22;5412;59.450;18.124;2023-07-20T13:05:46;22.70;99.90
10722;DHT22;5412;59.450;18.124;2023-07-20T13:08:11;22.60;99.90
10722;DHT22;5412;59.450;18.124;2023-07-20T13:10:38;22.50;99.90
10722;DHT22;5412;59.450;18.124;2023-07-20T13:13:07;22.50;99.90
10722;DHT22;5412;59.450;18.124;2023-07-20T13:15:41;22.70;99.90
10722;DHT22;5412;59.450;18.124;2023-07-20T13:18:07;23.30;99.90
10722;DHT22;5412;59.450;18.124;2023-07-20T13:20:33;23.30;99.90
10722;DHT22;5412;59.450;18.124;2023-07-20T13:22:58;23.40;99.90
10722;DHT22;5412;59.450;18.124;2023-07-20T13:25:25;23.90;99.90
10722;DHT22;5412;59.450;18.124;2023-07-20T13:27:50;23.80;99.90
10722;DHT22;5412;59.450;18.124;2023-07-20T13:30:16;23.80;99.90
10722;DHT22;5412;59.450;18.124;2023-07-20T13:32:45;23.30;99.90
10722;DHT22;5412;59.450;18.124;2023-07-20T13:35:14;23.10;99.90
10722;DHT22;5412;59.450;18.124;2023-07-20T13:37:40;23.50;99.90
10722;DHT22;5412;59.450;18.124;2023-07-20T13:40:07;23.90;99.90
10722;DHT22;5412;59.450;18.124;2023-07-20T13:42:37;23.50;99.90
10722;DHT22;5412;59.450;18.124;2023-07-20T13:45:03;23.10;99.90
10722;DHT22;5412;59.450;18.124;2023-07-20T13:47:29;22.70;99.90
10722;DHT22;5412;59.450;18.124;2023-07-20T13:49:55;23.00;99.90
10722;DHT22;5412;59.450;18.124;2023-07-20T13:52:21;23.40;99.90
10722;DHT22;5412;59.450;18.124;2023-07-20T13:54:47;24.00;99.90
10722;DHT22;5412;59.450;18.124;2023-07-20T13:57:13;24.20;99.90
10722;DHT22;5412;59.450;18.124;2023-07-20T13:59:40;23.80;99.90
10722;DHT22;5412;59.450;18.124;2023-07-20T14:02:06;24.10;99.90
10722;DHT22;5412;59.450;18.124;2023-07-20T14:04:31;24.40;99.90
10722;DHT22;5412;59.450;18.124;2023-07-20T14:06:57;24.30;99.90
10722;DHT22;5412;59.450;18.124;2023-07-20T14:09:23;23.40;99.90
10722;DHT22;5412;59.450;18.124;2023-07-20T14:11:49;23.00;99.90
10722;DHT22;5412;59.450;18.124;2023-07-20T14:14:15;22.30;99.90
10722;DHT22;5412;59.450;18.124;2023-07-20T14:16:41;22.90;99.90
10722;DHT22;5412;59.450;18.124;2023-07-20T14:19:07;23.20;99.90
10722;DHT22;5412;59.450;18.124;2023-07-20T14:21:32;23.10;99.90
10722;DHT22;5412;59.450;18.124;2023-07-20T14:23:58;22.90;99.90
10722;DHT22;5412;59.450;18.124;2023-07-20T14:26:24;23.50;99.90
10722;DHT22;5412;59.450;18.124;2023-07-20T14:28:50;24.40;99.90
10722;DHT22;5412;59.450;18.124;2023-07-20T14:31:16;25.10;99.90
10722;DHT22;5412;59.450;18.124;2023-07-20T14:33:41;25.90;99.30
10722;DHT22;5412;59.450;18.124;2023-07-20T14:36:07;25.70;98.70
10722;DHT22;5412;59.450;18.124;2023-07-20T14:38:34;24.80;98.90
10722;DHT22;5412;59.450;18.124;2023-07-20T14:41:00;24.80;98.70
10722;DHT22;5412;59.450;18.124;2023-07-20T14:43:26;25.00;98.00
10722;DHT22;5412;59.450;18.124;2023-07-20T14:45:52;24.30;97.40
10722;DHT22;5412;59.450;18.124;2023-07-20T14:48:19;24.10;97.90
10722;DHT22;5412;59.450;18.124;2023-07-20T14:50:45;23.90;98.00
10722;DHT22;5412;59.450;18.124;2023-07-20T14:53:13;24.00;98.70
10722;DHT22;5412;59.450;18.124;2023-07-20T14:55:39;23.90;98.70
10722;DHT22;5412;59.450;18.124;2023-07-20T14:58:04;23.70;98.50
10722;DHT22;5412;59.450;18.124;2023-07-20T15:00:30;24.20;98.30
10722;DHT22;5412;59.450;18.124;2023-07-20T15:02:56;24.50;97.80
10722;DHT22;5412;59.450;18.124;2023-07-20T15:05:22;24.30;97.50
10722;DHT22;5412;59.450;18.124;2023-07-20T15:07:49;24.10;98.20
10722;DHT22;5412;59.450;18.124;2023-07-20T15:10:15;23.80;98.20
10722;DHT22;5412;59.450;18.124;2023-07-20T15:12:41;23.30;99.20
10722;DHT22;5412;59.450;18.124;2023-07-20T15:15:12;22.80;99.90
10722;DHT22;5412;59.450;18.124;2023-07-20T15:17:40;22.40;99.90
10722;DHT22;5412;59.450;18.124;2023-07-20T15:20:09;21.80;99.90
10722;DHT22;5412;59.450;18.124;2023-07-20T15:22:35;21.60;99.90
10722;DHT22;5412;59.450;18.124;2023-07-20T15:25:05;21.40;99.90
10722;DHT22;5412;59.450;18.124;2023-07-20T15:27:32;21.40;99.90
10722;DHT22;5412;59.450;18.124;2023-07-20T15:29:58;21.20;99.90
10722;DHT22;5412;59.450;18.124;2023-07-20T15:32:24;21.10;99.90
10722;DHT22;5412;59.450;18.124;2023-07-20T15:34:50;21.20;99.90
10722;DHT22;5412;59.450;18.124;2023-07-20T15:37:16;22.80;99.90
10722;DHT22;5412;59.450;18.124;2023-07-20T15:39:41;24.30;99.40
10722;DHT22;5412;59.450;18.124;2023-07-20T15:42:07;24.90;96.70